Flight Track Log - Related Links

Times and Time Zones

All times are in EDT time to prevent confusion due to time zone crossing. See the FDX1347 flight status page for this flight to view local times or setup timezone preferences in your user account.

Time Position Orientation Groundspeed Altitude Reporting Facility
EDT Latitude Longitude Course Direction KTS MPH feet Rate Location/Type
Tue 09:54:25 PM 42.7297 -73.8081 216° Southwest 151 174 1,600  Level Boston Center
Tue 09:55:38 PM 42.6814 -73.8550 216° Southwest 235 270 3,900 2,015 Climbing Boston Center
Tue 09:56:39 PM 42.6594 -73.9392 251° West 265 305 6,100 2,628 Climbing Boston Center
Tue 09:57:39 PM 42.6536 -74.0519 266° West 281 323 9,200 2,800 Climbing Boston Center
Tue 09:58:39 PM 42.6475 -74.1817 266° West 310 357 11,700 2,350 Climbing Boston Center
Tue 09:59:39 PM 42.6431 -74.3311 268° West 368 423 13,900 2,300 Climbing Boston Center
Tue 10:00:39 PM 42.6364 -74.4833 267° West 406 467 16,300 1,454 Climbing Boston Center
Tue 10:06:07 PM 42.3640 -75.2810 267° West 452 520 23,300 1,321 Climbing FlightAware ADS-B
Tue 10:06:47 PM 42.3200 -75.3670 235° Southwest 456 525 24,400 776 Climbing FlightAware ADS-B
Tue 10:07:32 PM 42.2700 -75.4650 235° Southwest 456 525 24,400 1,667 Level FlightAware ADS-B
Tue 10:08:17 PM 42.2050 -75.5900 235° Southwest 472 543 26,900 2,025 Climbing FlightAware ADS-B
Tue 10:08:52 PM 42.1660 -75.6650 235° Southwest 473 544 27,100 1,129 Climbing FlightAware ADS-B
Tue 10:09:42 PM 42.1060 -75.7800 235° Southwest 484 557 28,500 2,000 Climbing FlightAware ADS-B
Tue 10:10:22 PM 42.0480 -75.8930 235° Southwest 479 551 30,100 2,160 Climbing FlightAware ADS-B
Tue 10:10:57 PM 42.0060 -75.9730 235° Southwest 471 542 31,200 1,760 Climbing FlightAware ADS-B
Tue 10:11:37 PM 41.9590 -76.0640 235° Southwest 468 539 32,300 1,636 Climbing FlightAware ADS-B
Tue 10:11:52 PM 41.9318 -76.1158 235° Southwest 469 540 32,700 1,467 Climbing FlightAware ADS-B
Tue 10:12:22 PM 41.8938 -76.1876 235° Southwest 472 543 33,400 1,325 Climbing FlightAware ADS-B
Tue 10:13:09 PM 41.8350 -76.2997 235° Southwest 471 542 34,400 1,308 Climbing FlightAware ADS-B
Tue 10:13:40 PM 41.7960 -76.3736 235° Southwest 472 543 35,100 1,279 Climbing FlightAware ADS-B
Tue 10:14:10 PM 41.7576 -76.4452 234° Southwest 472 543 35,700 1,279 Climbing FlightAware ADS-B
Tue 10:14:41 PM 41.7190 -76.5189 235° Southwest 471 542 36,400 1,200 Climbing FlightAware ADS-B
Tue 10:15:15 PM 41.6760 -76.5995 234° Southwest 470 541 37,000 1,031 Climbing FlightAware ADS-B
Tue 10:15:45 PM 41.6379 -76.6706 234° Southwest 471 542 37,500 885 Climbing FlightAware ADS-B
Tue 10:16:16 PM 41.5993 -76.7417 234° Southwest 473 544 37,900 787 Climbing FlightAware ADS-B
Tue 10:16:46 PM 41.5603 -76.8153 235° Southwest 474 545 38,300 1,200 Climbing FlightAware ADS-B
Tue 10:17:16 PM 41.5219 -76.8861 234° Southwest 466 536 39,100 1,672 Climbing FlightAware ADS-B
Tue 10:17:47 PM 41.4848 -76.9563 235° Southwest 442 509 40,000 844 Climbing FlightAware ADS-B
Tue 10:18:20 PM 41.4453 -77.0290 234° Southwest 443 510 40,000  Level FlightAware ADS-B
Tue 10:18:53 PM 41.4059 -77.1004 234° Southwest 449 517 40,000  Level FlightAware ADS-B
Tue 10:19:24 PM 41.3677 -77.1726 235° Southwest 455 524 40,000  Level FlightAware ADS-B
Tue 10:20:11 PM 41.3096 -77.2773 234° Southwest 458 527 40,000  Level FlightAware ADS-B
Tue 10:20:52 PM 41.2680 -77.3550 235° Southwest 459 528 40,000  Level FlightAware ADS-B
Tue 10:21:03 PM 41.2444 -77.3983 234° Southwest 460 529 40,000  Level FlightAware ADS-B
Tue 10:21:36 PM 41.2025 -77.4739 234° Southwest 462 532 40,000  Level FlightAware ADS-B
Tue 10:22:07 PM 41.1644 -77.5428 234° Southwest 462 532 40,000  Level FlightAware ADS-B
Tue 10:22:39 PM 41.1238 -77.6182 234° Southwest 462 532 40,000  Level FlightAware ADS-B
Tue 10:23:11 PM 41.0839 -77.6890 233° Southwest 462 532 40,000  Level FlightAware ADS-B
Tue 10:23:42 PM 41.0520 -77.7460 233° Southwest 460 529 40,000  Level FlightAware ADS-B
Tue 10:24:01 PM 41.0200 -77.8052 234° Southwest 461 531 40,000  Level FlightAware ADS-B
Tue 10:24:35 PM 40.9773 -77.8823 234° Southwest 460 529 40,000  Level FlightAware ADS-B
Tue 10:25:16 PM 40.9256 -77.9753 234° Southwest 461 531 40,000  Level FlightAware ADS-B
Tue 10:26:27 PM 40.8490 -78.1240 236° Southwest 453 521 40,000  Level FlightAware ADS-B
Tue 10:27:12 PM 40.7990 -78.2250 237° Southwest 450 518 40,000  Level FlightAware ADS-B
Tue 10:27:47 PM 40.7590 -78.3050 237° Southwest 449 517 40,000  Level FlightAware ADS-B
Tue 10:28:32 PM 40.7090 -78.4030 236° Southwest 448 516 40,000  Level FlightAware ADS-B
Tue 10:29:12 PM 40.6590 -78.4990 236° Southwest 449 517 40,000  Level FlightAware ADS-B
Tue 10:29:57 PM 40.6050 -78.6070 237° Southwest 450 518 40,000  Level FlightAware ADS-B
Tue 10:30:42 PM 40.5530 -78.7090 236° Southwest 460 529 40,000  Level FlightAware ADS-B
Tue 10:31:22 PM 40.5070 -78.8090 239° Southwest 454 522 40,000  Level FlightAware ADS-B
Tue 10:32:02 PM 40.4620 -78.9100 240° Southwest 459 528 40,000  Level FlightAware ADS-B
Tue 10:32:47 PM 40.4170 -79.0140 240° Southwest 459 528 40,000  Level FlightAware ADS-B
Tue 10:33:27 PM 40.3740 -79.1110 240° Southwest 460 529 40,000  Level FlightAware ADS-B
Tue 10:34:07 PM 40.3310 -79.2070 240° Southwest 462 532 40,000  Level FlightAware ADS-B
Tue 10:34:52 PM 40.2820 -79.3170 240° Southwest 467 537 40,000  Level FlightAware ADS-B
Tue 10:35:37 PM 40.2330 -79.4260 240° Southwest 467 537 40,000  Level FlightAware ADS-B
Tue 10:36:17 PM 40.1900 -79.5210 239° Southwest 469 540 40,000  Level FlightAware ADS-B
Tue 10:36:57 PM 40.1450 -79.6220 240° Southwest 470 541 40,000  Level FlightAware ADS-B
Tue 10:37:42 PM 40.0960 -79.7290 239° Southwest 469 540 40,000  Level FlightAware ADS-B
Tue 10:38:22 PM 40.0510 -79.8280 239° Southwest 467 537 40,000  Level FlightAware ADS-B
Tue 10:39:07 PM 40.0010 -79.9380 239° Southwest 468 539 40,000  Level FlightAware ADS-B
Tue 10:39:47 PM 39.9560 -80.0350 239° Southwest 469 540 40,000  Level FlightAware ADS-B
Tue 10:40:27 PM 39.9120 -80.1320 239° Southwest 470 541 40,000  Level FlightAware ADS-B
Tue 10:41:12 PM 39.8610 -80.2420 239° Southwest 471 542 40,000  Level FlightAware ADS-B
Tue 10:41:47 PM 39.8190 -80.3320 239° Southwest 473 544 40,000  Level FlightAware ADS-B
Tue 10:42:32 PM 39.7720 -80.4340 239° Southwest 473 544 40,000  Level FlightAware ADS-B
Tue 10:43:17 PM 39.7210 -80.5430 239° Southwest 473 544 40,000  Level FlightAware ADS-B
Tue 10:43:57 PM 39.6710 -80.6500 239° Southwest 472 543 40,000  Level FlightAware ADS-B
Tue 10:44:42 PM 39.6200 -80.7590 239° Southwest 471 542 40,000  Level FlightAware ADS-B
Tue 10:45:22 PM 39.5750 -80.8550 239° Southwest 470 541 40,000  Level FlightAware ADS-B
Tue 10:46:07 PM 39.5230 -80.9650 239° Southwest 470 541 40,000  Level FlightAware ADS-B
Tue 10:46:47 PM 39.4770 -81.0610 238° Southwest 470 541 40,000  Level FlightAware ADS-B
Tue 10:47:27 PM 39.4360 -81.1480 239° Southwest 471 542 40,000  Level FlightAware ADS-B
Tue 10:48:12 PM 39.3820 -81.2630 239° Southwest 471 542 40,000  Level FlightAware ADS-B
Tue 10:48:52 PM 39.3360 -81.3590 238° Southwest 473 544 40,000  Level FlightAware ADS-B
Tue 10:49:37 PM 39.2830 -81.4690 238° Southwest 473 544 40,000  Level FlightAware ADS-B
Tue 10:50:17 PM 39.2390 -81.5600 238° Southwest 472 543 40,000  Level FlightAware ADS-B
Tue 10:51:02 PM 39.1870 -81.6680 238° Southwest 472 543 40,000  Level FlightAware ADS-B
Tue 10:51:42 PM 39.1410 -81.7630 238° Southwest 472 543 40,000  Level FlightAware ADS-B
Tue 10:52:22 PM 39.0940 -81.8610 238° Southwest 471 542 40,000  Level FlightAware ADS-B
Tue 10:53:07 PM 39.0410 -81.9680 237° Southwest 470 541 40,000  Level FlightAware ADS-B
Tue 10:53:47 PM 38.9940 -82.0650 238° Southwest 470 541 40,000  Level FlightAware ADS-B
Tue 10:54:27 PM 38.9520 -82.1500 238° Southwest 470 541 40,000  Level FlightAware ADS-B
Tue 10:55:12 PM 38.8970 -82.2630 238° Southwest 471 542 40,000  Level FlightAware ADS-B
Tue 10:55:52 PM 38.8500 -82.3580 238° Southwest 471 542 40,000  Level FlightAware ADS-B
Tue 10:56:37 PM 38.7980 -82.4620 237° Southwest 471 542 40,000  Level FlightAware ADS-B
Tue 10:57:17 PM 38.7520 -82.5580 238° Southwest 470 541 40,000  Level FlightAware ADS-B
Tue 10:57:57 PM 38.7080 -82.6420 236° Southwest 470 541 40,000  Level FlightAware ADS-B
Tue 10:58:37 PM 38.6670 -82.7220 237° Southwest 470 541 40,000  Level FlightAware ADS-B
Tue 10:59:22 PM 38.6040 -82.8510 238° Southwest 470 541 40,000  Level FlightAware ADS-B
Tue 11:00:07 PM 38.5570 -82.9440 237° Southwest 470 541 40,000  Level FlightAware ADS-B
Tue 11:00:47 PM 38.5170 -83.0230 237° Southwest 470 541 40,000  Level FlightAware ADS-B
Tue 11:01:27 PM 38.4770 -83.1030 237° Southwest 470 541 40,000  Level FlightAware ADS-B
Tue 11:02:07 PM 38.4360 -83.1820 236° Southwest 470 541 40,000  Level FlightAware ADS-B
Tue 11:02:48 PM 38.3590 -83.3352 237° Southwest 468 539 40,000  Level FlightAware ADS-B
Tue 11:04:00 PM 38.2742 -83.5013 237° Southwest 467 537 40,000  Level FlightAware ADS-B
Tue 11:05:27 PM 38.1740 -83.6960 237° Southwest 466 536 40,000  Level FlightAware ADS-B
Tue 11:06:07 PM 38.1310 -83.7780 236° Southwest 467 537 40,000  Level FlightAware ADS-B
Tue 11:06:47 PM 38.0900 -83.8560 236° Southwest 467 537 40,000  Level FlightAware ADS-B
Tue 11:07:27 PM 38.0480 -83.9330 235° Southwest 467 537 40,000  Level FlightAware ADS-B
Tue 11:08:12 PM 37.9790 -84.0720 238° Southwest 468 539 40,000  Level FlightAware ADS-B
Tue 11:08:57 PM 37.9240 -84.1800 237° Southwest 467 537 40,000  Level FlightAware ADS-B
Tue 11:09:13 PM 37.9033 -84.2186 236° Southwest 467 537 40,000  Level FlightAware ADS-B
Tue 11:09:44 PM 37.8669 -84.2869 236° Southwest 466 536 40,000  Level FlightAware ADS-B
Tue 11:10:14 PM 37.8310 -84.3548 236° Southwest 466 536 40,000  Level FlightAware ADS-B
Tue 11:10:44 PM 37.7944 -84.4251 237° Southwest 465 535 40,000  Level FlightAware ADS-B
Tue 11:11:15 PM 37.7585 -84.4928 236° Southwest 465 535 40,000  Level FlightAware ADS-B
Tue 11:11:45 PM 37.7224 -84.5625 237° Southwest 464 534 40,000  Level FlightAware ADS-B
Tue 11:12:15 PM 37.6866 -84.6300 236° Southwest 463 533 40,000  Level FlightAware ADS-B
Tue 11:12:45 PM 37.6505 -84.6971 236° Southwest 462 532 40,000  Level FlightAware ADS-B
Tue 11:13:16 PM 37.6142 -84.7661 236° Southwest 459 528 40,000  Level FlightAware ADS-B
Tue 11:13:46 PM 37.5786 -84.8328 236° Southwest 458 527 40,000  Level FlightAware ADS-B
Tue 11:14:19 PM 37.5392 -84.9059 236° Southwest 458 527 40,000  Level FlightAware ADS-B
Tue 11:14:50 PM 37.5030 -84.9742 236° Southwest 457 526 40,000  Level FlightAware ADS-B
Tue 11:15:20 PM 37.4674 -85.0403 236° Southwest 457 526 40,000  Level FlightAware ADS-B
Tue 11:15:51 PM 37.4314 -85.1063 236° Southwest 456 525 40,000  Level FlightAware ADS-B
Tue 11:16:21 PM 37.3960 -85.1720 236° Southwest 456 525 40,000  Level FlightAware ADS-B
Tue 11:16:51 PM 37.3602 -85.2398 236° Southwest 454 522 40,000  Level FlightAware ADS-B
Tue 11:17:23 PM 37.3230 -85.3074 235° Southwest 453 521 40,000  Level FlightAware ADS-B
Tue 11:17:53 PM 37.2872 -85.3748 236° Southwest 453 521 40,000  Level FlightAware ADS-B
Tue 11:18:23 PM 37.2514 -85.4400 235° Southwest 452 520 40,000  Level FlightAware ADS-B
Tue 11:18:54 PM 37.2155 -85.5070 236° Southwest 451 519 40,000  Level FlightAware ADS-B
Tue 11:19:25 PM 37.1794 -85.5717 235° Southwest 451 519 40,000  Level FlightAware ADS-B
Tue 11:19:56 PM 37.1428 -85.6387 236° Southwest 453 521 40,000  Level FlightAware ADS-B
Tue 11:20:26 PM 37.1071 -85.7036 235° Southwest 454 522 40,000  Level FlightAware ADS-B
Tue 11:20:57 PM 37.0696 -85.7730 236° Southwest 454 522 40,000  Level FlightAware ADS-B
Tue 11:21:30 PM 37.0306 -85.8445 236° Southwest 455 524 40,000  Level FlightAware ADS-B
Tue 11:22:03 PM 36.9930 -85.9171 237° Southwest 453 521 40,000  Level FlightAware ADS-B
Tue 11:22:30 PM 36.9671 -85.9773 242° Southwest 453 521 40,000  Level FlightAware ADS-B
Tue 11:23:00 PM 36.9411 -86.0486 245° Southwest 451 519 40,000  Level FlightAware ADS-B
Tue 11:23:30 PM 36.9148 -86.1219 246° West 450 518 40,000  Level FlightAware ADS-B
Tue 11:24:01 PM 36.8885 -86.1929 245° Southwest 450 518 40,000  Level FlightAware ADS-B
Tue 11:24:33 PM 36.8600 -86.2706 245° Southwest 450 518 40,000  Level FlightAware ADS-B
Tue 11:25:43 PM 36.7994 -86.4353 245° Southwest 449 517 40,000  Level FlightAware ADS-B
Tue 11:26:20 PM 36.7671 -86.5228 245° Southwest 452 520 40,000  Level FlightAware ADS-B
Tue 11:27:03 PM 36.7296 -86.6222 245° Southwest 454 522 40,000  Level FlightAware ADS-B
Tue 11:27:37 PM 36.6994 -86.7029 245° Southwest 454 522 40,000  Level FlightAware ADS-B
Tue 11:28:08 PM 36.6714 -86.7787 245° Southwest 455 524 40,000  Level FlightAware ADS-B
Tue 11:28:42 PM 36.6415 -86.8595 245° Southwest 455 524 40,000  Level FlightAware ADS-B
Tue 11:29:12 PM 36.6160 -86.9260 244° Southwest 455 524 40,000  Level FlightAware ADS-B
Tue 11:29:57 PM 36.5770 -87.0300 245° Southwest 456 525 40,000  Level FlightAware ADS-B
Tue 11:30:37 PM 36.5410 -87.1280 245° Southwest 457 526 40,000  Level FlightAware ADS-B
Tue 11:31:22 PM 36.5010 -87.2320 244° Southwest 454 522 40,000 -494 Level FlightAware ADS-B
Tue 11:32:02 PM 36.4640 -87.3290 245° Southwest 452 520 39,300 -900 Descending FlightAware ADS-B
Tue 11:32:42 PM 36.4280 -87.4240 245° Southwest 446 513 38,800 -1,200 Descending FlightAware ADS-B
Tue 11:33:27 PM 36.3880 -87.5280 244° Southwest 458 527 37,600 -1,200 Descending FlightAware ADS-B
Tue 11:34:07 PM 36.3530 -87.6200 245° Southwest 453 521 37,100 -988 Descending FlightAware ADS-B
Tue 11:34:52 PM 36.3110 -87.7280 244° Southwest 458 527 36,200 -1,059 Descending FlightAware ADS-B
Tue 11:35:32 PM 36.2740 -87.8250 245° Southwest 459 528 35,600 -675 Descending FlightAware ADS-B
Tue 11:36:12 PM 36.2410 -87.9080 244° Southwest 452 520 35,300 -360 Descending FlightAware ADS-B
Tue 11:37:12 PM 36.1880 -88.0460 245° Southwest 448 516 35,000 -180 Descending FlightAware ADS-B
Tue 11:37:52 PM 36.1570 -88.1240 244° Southwest 448 516 35,000  Level FlightAware ADS-B
Tue 11:38:32 PM 36.1260 -88.2020 244° Southwest 448 516 35,000  Level FlightAware ADS-B
Tue 11:39:12 PM 36.0950 -88.2810 244° Southwest 448 516 35,000  Level FlightAware ADS-B
Tue 11:39:52 PM 36.0640 -88.3590 244° Southwest 448 516 35,000  Level FlightAware ADS-B
Tue 11:40:32 PM 36.0330 -88.4380 244° Southwest 448 516 35,000  Level FlightAware ADS-B
Tue 11:41:22 PM 35.9950 -88.5350 244° Southwest 448 516 35,000  Level FlightAware ADS-B
Tue 11:42:02 PM 35.9640 -88.6140 244° Southwest 448 516 35,000  Level FlightAware ADS-B
Tue 11:42:42 PM 35.9330 -88.6920 244° Southwest 448 516 35,000  Level FlightAware ADS-B
Tue 11:43:22 PM 35.9020 -88.7700 244° Southwest 448 516 35,000  Level FlightAware ADS-B
Tue 11:44:12 PM 35.8630 -88.8680 244° Southwest 448 516 35,000  Level FlightAware ADS-B
Tue 11:44:52 PM 35.8320 -88.9460 244° Southwest 448 516 35,000  Level FlightAware ADS-B
Tue 11:45:32 PM 35.8020 -89.0240 245° Southwest 448 516 35,000  Level FlightAware ADS-B
Tue 11:46:12 PM 35.7710 -89.1020 244° Southwest 448 516 35,000 -16,100 Level FlightAware ADS-B
Tue 11:46:32 PM 35.6153 -89.2206 244° Southwest 394 453 18,900 -13,425 Descending Memphis Center
Tue 11:47:32 PM 35.5494 -89.3058 227° Southwest 394 453 17,100 -1,650 Descending Memphis Center
Tue 11:48:32 PM 35.4792 -89.3958 226° Southwest 373 429 15,600 -1,200 Descending Memphis Center
Tue 11:49:32 PM 35.4111 -89.4833 226° Southwest 373 429 14,700 -900 Descending Memphis Center
Tue 11:50:32 PM 35.3447 -89.5681 226° Southwest 357 411 13,800 -1,050 Descending Memphis Center
Tue 11:51:32 PM 35.2889 -89.6397 226° Southwest 322 371 12,600 -1,300 Descending Memphis Center
Tue 11:52:32 PM 35.2308 -89.7114 225° Southwest 299 344 11,200 -950 Descending Memphis Center
Tue 11:53:32 PM 35.1769 -89.7803 226° Southwest 293 337 10,700 -900 Descending Memphis Center
Tue 11:54:32 PM 35.1272 -89.8442 226° Southwest 276 318 9,400 -1,450 Descending Memphis Center
Tue 11:55:32 PM 35.0606 -89.8675 196° South 249 287 7,800 -1,650 Descending Memphis Center
Tue 11:56:32 PM 34.9897 -89.8653 179° South 249 287 6,100 -900 Descending Memphis Center
Tue 11:57:32 PM 34.9228 -89.8683 182° South 249 287 6,000 -250 Descending Memphis Center
Tue 11:58:32 PM 34.8542 -89.8661 178° South 249 287 5,600 -850 Descending Memphis Center
Tue 11:59:32 PM 34.7894 -89.8717 184° South 249 287 4,300 -1,500 Descending Memphis Center
Wed 12:00:32 AM 34.7917 -89.9297 273° West 145 167 2,600 -719 Descending Memphis Center
Wed 12:02:44 AM 34.9000 -89.9667 344° North 168 193 2,000 -274 Descending KMEM
Wed 12:03:49 AM 34.9500 -89.9667 360° North 164 189 1,700 -480 Descending KMEM
Wed 12:04:49 AM 34.9833 -89.9667 360° North 116 133 1,000 -700 Descending KMEM
Wed 12:06:00 AM 35.0333 -89.9667 345° North  Level FlightAware Approximate
Wed 12:13:00 AM 35.0424 -89.9767 345° North  Level Estimated
Wed 12:14:00 AM 35.0424 -89.9767 345° North  Level Estimated
Wed 12:15:00 AM 35.0424 -89.9767 345° North  Level Estimated
Wed 12:16:00 AM 35.0424 -89.9767 345° North  Level Estimated
Wed 12:17:00 AM 35.0424 -89.9767 345° North  Level Estimated
Wed 12:18:00 AM 35.0424 -89.9767 345° North  Level Estimated
Wed 12:19:00 AM 35.0424 -89.9767 345° North  Level Estimated
Wed 12:20:00 AM 35.0424 -89.9767 345° North  Level Estimated

Login

Don't have an account? Register now (free) for customized features, flight alerts, and more!